Time;durP1;ratioP1;P1;durP2;ratioP2;P2;SDS_P1;SDS_P2;PMS_P1;PMS_P2;Temp;Humidity;BMP_temperature;BMP_pressure;BME280_temperature;BME280_humidity;BME280_pressure;Samples;Min_cycle;Max_cycle;Signal;HPM_P1;HPM_P2
2021/12/22 00:01:18;;;;;;;;;;;13.30;2201.60;;;;;;4753204;30;19934;-55
2021/12/22 00:03:47;;;;;;;;;;;13.20;2201.60;;;;;;4753644;30;20253;-55
2021/12/22 00:06:14;;;;;;;;;;;13.20;2201.60;;;;;;4753418;30;19965;-58
2021/12/22 00:08:40;;;;;;;;;;;13.20;2201.60;;;;;;4753500;30;19914;-58
2021/12/22 00:11:05;;;;;;;;;;;13.20;2201.60;;;;;;4753399;30;20276;-55
2021/12/22 00:13:31;;;;;;;;;;;13.20;2201.60;;;;;;4753236;30;19910;-57
2021/12/22 00:15:57;;;;;;;;;;;13.10;2201.60;;;;;;4753769;30;19957;-55
2021/12/22 00:18:23;;;;;;;;;;;13.10;2201.60;;;;;;4752979;30;19910;-55
2021/12/22 00:20:48;;;;;;;;;;;13.20;2201.60;;;;;;4753090;30;20011;-55
2021/12/22 00:23:14;;;;;;;;;;;13.10;2201.60;;;;;;4752995;30;19922;-55
2021/12/22 00:25:40;;;;;;;;;;;13.10;2201.60;;;;;;4753045;30;20261;-57
2021/12/22 00:28:05;;;;;;;;;;;13.10;2201.60;;;;;;4753227;30;19925;-55
2021/12/22 00:30:31;;;;;;;;;;;13.10;2201.60;;;;;;4753048;30;20451;-55
2021/12/22 00:33:03;;;;;;;;;;;13.00;2201.60;;;;;;4752996;30;19910;-55
2021/12/22 00:35:37;;;;;;;;;;;12.90;2201.60;;;;;;4753291;30;19910;-55
2021/12/22 00:38:03;;;;;;;;;;;12.90;2201.60;;;;;;4752924;30;19921;-57
2021/12/22 00:40:29;;;;;;;;;;;0.00;2201.60;;;;;;4770665;30;20327;-56
2021/12/22 00:42:55;;;;;;;;;;;12.90;2201.60;;;;;;4770612;30;19914;-56
2021/12/22 00:45:24;;;;;;;;;;;12.90;2201.60;;;;;;4770679;30;19909;-55
2021/12/22 00:47:49;;;;;;;;;;;12.90;2201.60;;;;;;4770647;30;20061;-58
2021/12/22 00:50:16;;;;;;;;;;;0.00;2201.60;;;;;;4770684;30;20042;-55
2021/12/22 00:52:42;;;;;;;;;;;0.00;2201.60;;;;;;4772650;30;19914;-55
2021/12/22 00:55:08;;;;;;;;;;;0.00;2201.60;;;;;;4774441;30;19958;-56
2021/12/22 00:57:35;;;;;;;;;;;0.00;2201.60;;;;;;4774389;30;19974;-55
2021/12/22 01:00:01;;;;;;;;;;;12.90;2201.60;;;;;;4774298;30;19910;-57
2021/12/22 01:02:27;;;;;;;;;;;0.00;2201.60;;;;;;4774044;30;19910;-57
2021/12/22 01:04:53;;;;;;;;;;;12.90;2201.60;;;;;;4773999;30;19914;-56
2021/12/22 01:07:18;;;;;;;;;;;12.90;2201.60;;;;;;4774181;30;20416;-55
2021/12/22 01:09:44;;;;;;;;;;;12.90;2201.60;;;;;;4773909;30;19988;-57
2021/12/22 01:12:10;;;;;;;;;;;12.90;2201.60;;;;;;4774136;30;19961;-55
2021/12/22 01:14:37;;;;;;;;;;;12.90;2201.60;;;;;;4773851;30;19932;-55
2021/12/22 01:17:03;;;;;;;;;;;12.90;2201.60;;;;;;4773844;30;19910;-58
2021/12/22 01:19:47;;;;;;;;;;;12.90;2201.60;;;;;;4773749;30;20366;-54
2021/12/22 01:22:25;;;;;;;;;;;12.90;2201.60;;;;;;4773619;30;20352;-58
2021/12/22 01:25:00;;;;;;;;;;;12.90;2201.60;;;;;;4774489;30;19922;-58
2021/12/22 01:27:34;;;;;;;;;;;12.90;2201.60;;;;;;4773874;30;19982;-55
2021/12/22 01:30:01;;;;;;;;;;;12.90;2201.60;;;;;;4773994;30;19956;-57
2021/12/22 01:32:27;;;;;;;;;;;12.90;2201.60;;;;;;4773538;30;19940;-56
2021/12/22 01:34:52;;;;;;;;;;;0.00;2201.60;;;;;;4773508;30;19910;-57
2021/12/22 01:37:18;;;;;;;;;;;0.00;2201.60;;;;;;4773505;30;19910;-55
2021/12/22 01:39:44;;;;;;;;;;;12.90;2201.60;;;;;;4773677;30;19910;-55
2021/12/22 01:42:10;;;;;;;;;;;12.90;2201.60;;;;;;4773438;30;19910;-55
2021/12/22 01:50:17;;;;;;;;;;;0.00;2201.60;;;;;;4773646;30;19918;-55
2021/12/22 01:52:44;;;;;;;;;;;0.00;2201.60;;;;;;4773563;30;19910;-57
2021/12/22 01:55:26;;;;;;;;;;;12.90;2201.60;;;;;;4773426;30;19910;-57
2021/12/22 01:57:52;;;;;;;;;;;0.00;2201.60;;;;;;4773486;30;19910;-57
2021/12/22 02:00:20;;;;;;;;;;;0.10;2201.60;;;;;;4773051;30;20413;-56
2021/12/22 02:02:45;;;;;;;;;;;0.20;2201.60;;;;;;4772709;30;19914;-59
2021/12/22 02:05:11;;;;;;;;;;;0.20;2201.60;;;;;;4773237;30;19910;-56
2021/12/22 02:07:37;;;;;;;;;;;0.20;2201.60;;;;;;4772863;30;19918;-57
2021/12/22 02:10:18;;;;;;;;;;;0.10;2201.60;;;;;;4772922;30;19917;-56
2021/12/22 02:12:48;;;;;;;;;;;0.10;2201.60;;;;;;4772898;30;19917;-55
2021/12/22 02:15:14;;;;;;;;;;;0.10;2201.60;;;;;;4772784;30;19910;-55
2021/12/22 02:17:41;;;;;;;;;;;0.20;2201.60;;;;;;4756775;30;19917;-55
2021/12/22 02:20:07;;;;;;;;;;;0.10;2201.60;;;;;;4772728;30;19918;-55
2021/12/22 02:22:33;;;;;;;;;;;0.10;2201.60;;;;;;4773127;30;20329;-57
2021/12/22 02:25:05;;;;;;;;;;;0.20;2201.60;;;;;;4773061;30;20387;-56
2021/12/22 02:27:40;;;;;;;;;;;0.20;2201.60;;;;;;4772527;30;20390;-57
2021/12/22 02:30:13;;;;;;;;;;;0.30;2201.60;;;;;;4772645;30;19910;-56
2021/12/22 02:33:23;;;;;;;;;;;0.20;2201.60;;;;;;4772540;30;19910;-57
2021/12/22 02:35:40;;;;;;;;;;;0.20;2201.60;;;;;;4767345;30;19910;-55
2021/12/22 02:38:13;;;;;;;;;;;0.20;2201.60;;;;;;4773079;30;19909;-55
2021/12/22 02:40:38;;;;;;;;;;;0.30;2201.60;;;;;;4756340;30;20472;-57
2021/12/22 02:43:05;;;;;;;;;;;0.20;2201.60;;;;;;4772436;30;19909;-58
2021/12/22 02:45:33;;;;;;;;;;;0.20;2201.60;;;;;;4772303;30;20004;-55
2021/12/22 02:47:59;;;;;;;;;;;0.20;2201.60;;;;;;4772229;30;19918;-55
2021/12/22 02:50:25;;;;;;;;;;;0.20;2201.60;;;;;;4772592;30;19921;-57
2021/12/22 02:55:26;;;;;;;;;;;0.30;2201.60;;;;;;4772280;30;19959;-55
2021/12/22 02:57:54;;;;;;;;;;;0.30;2201.60;;;;;;4772119;30;19916;-55
2021/12/22 03:00:45;;;;;;;;;;;0.40;2201.60;;;;;;4772674;30;19946;-55
2021/12/22 03:03:46;;;;;;;;;;;0.40;2201.60;;;;;;4772343;30;19910;-56
2021/12/22 03:06:04;;;;;;;;;;;0.40;2201.60;;;;;;4770423;30;19910;-55
2021/12/22 03:08:31;;;;;;;;;;;0.30;2201.60;;;;;;4771957;30;20440;-58
2021/12/22 03:10:56;;;;;;;;;;;0.30;2201.60;;;;;;4772211;30;19909;-55
2021/12/22 03:13:23;;;;;;;;;;;0.20;2201.60;;;;;;4771856;30;20245;-55
2021/12/22 03:15:48;;;;;;;;;;;0.20;2201.60;;;;;;4771140;30;20364;-55
2021/12/22 03:18:14;;;;;;;;;;;0.30;2201.60;;;;;;4772029;30;19935;-55
2021/12/22 03:20:41;;;;;;;;;;;0.40;2201.60;;;;;;4771784;30;20311;-57
2021/12/22 03:23:07;;;;;;;;;;;0.30;2201.60;;;;;;4771586;30;19921;-56
2021/12/22 03:25:32;;;;;;;;;;;0.30;2201.60;;;;;;4772247;30;20313;-58
2021/12/22 03:28:03;;;;;;;;;;;0.30;2201.60;;;;;;4771583;30;19918;-56
2021/12/22 03:30:29;;;;;;;;;;;0.40;2201.60;;;;;;4771531;30;19910;-55
2021/12/22 03:32:54;;;;;;;;;;;0.40;2201.60;;;;;;4771848;30;19909;-57
2021/12/22 03:35:21;;;;;;;;;;;0.40;2201.60;;;;;;4771471;30;20249;-55
2021/12/22 03:37:49;;;;;;;;;;;0.30;2201.60;;;;;;4771476;30;19909;-55
2021/12/22 03:40:16;;;;;;;;;;;0.40;2201.60;;;;;;4771698;30;19963;-55
2021/12/22 03:42:41;;;;;;;;;;;0.40;2201.60;;;;;;4771311;30;19910;-58
2021/12/22 03:45:07;;;;;;;;;;;0.50;2201.60;;;;;;4771354;30;19969;-57
2021/12/22 03:47:33;;;;;;;;;;;0.60;2201.60;;;;;;4771482;30;19921;-57
2021/12/22 03:49:59;;;;;;;;;;;0.60;2201.60;;;;;;4771239;30;19965;-55
2021/12/22 03:52:24;;;;;;;;;;;0.50;2201.60;;;;;;4771310;30;19914;-55
2021/12/22 03:54:54;;;;;;;;;;;0.50;2201.60;;;;;;4771461;30;19982;-55
2021/12/22 03:57:20;;;;;;;;;;;0.40;2201.60;;;;;;4771199;30;19964;-57
2021/12/22 03:59:46;;;;;;;;;;;0.40;2201.60;;;;;;4771309;30;19953;-55
2021/12/22 04:02:12;;;;;;;;;;;0.40;2201.60;;;;;;4771162;30;20276;-55
2021/12/22 04:04:39;;;;;;;;;;;0.40;2201.60;;;;;;4771135;30;20377;-55
2021/12/22 04:07:05;;;;;;;;;;;0.40;2201.60;;;;;;4770994;30;19953;-57
2021/12/22 04:09:30;;;;;;;;;;;0.50;2201.60;;;;;;4770982;30;19948;-57
2021/12/22 04:11:56;;;;;;;;;;;0.50;2201.60;;;;;;4771863;30;19917;-57
2021/12/22 04:14:22;;;;;;;;;;;0.60;2201.60;;;;;;4770882;30;20284;-58
2021/12/22 04:16:47;;;;;;;;;;;0.50;2201.60;;;;;;4770959;30;19967;-58
2021/12/22 04:19:13;;;;;;;;;;;0.50;2201.60;;;;;;4770812;30;19933;-55
2021/12/22 04:21:39;;;;;;;;;;;0.50;2201.60;;;;;;4770789;30;19909;-58
2021/12/22 04:24:06;;;;;;;;;;;0.50;2201.60;;;;;;4770723;30;19925;-56
2021/12/22 04:26:33;;;;;;;;;;;0.60;2201.60;;;;;;4770581;30;20364;-57
2021/12/22 04:28:59;;;;;;;;;;;0.40;2201.60;;;;;;4770942;30;19910;-55
2021/12/22 04:31:25;;;;;;;;;;;0.50;2201.60;;;;;;4770788;30;19916;-58
2021/12/22 04:33:51;;;;;;;;;;;0.50;2201.60;;;;;;4771003;30;19949;-55
2021/12/22 04:36:16;;;;;;;;;;;0.50;2201.60;;;;;;4770709;30;19967;-55
2021/12/22 04:38:42;;;;;;;;;;;0.40;2201.60;;;;;;4770653;30;19913;-57
2021/12/22 04:41:08;;;;;;;;;;;0.40;2201.60;;;;;;4770961;30;19916;-55
2021/12/22 04:43:33;;;;;;;;;;;0.40;2201.60;;;;;;4770723;30;20322;-58
2021/12/22 04:45:59;;;;;;;;;;;0.50;2201.60;;;;;;4770923;30;19963;-55
2021/12/22 04:48:25;;;;;;;;;;;0.60;2201.60;;;;;;4770545;30;19922;-55
2021/12/22 04:50:51;;;;;;;;;;;0.70;2201.60;;;;;;4770903;30;19910;-57
2021/12/22 04:53:26;;;;;;;;;;;0.60;2201.60;;;;;;4770648;30;20383;-55
2021/12/22 04:55:52;;;;;;;;;;;0.70;2201.60;;;;;;4770677;30;19910;-55
2021/12/22 04:58:17;;;;;;;;;;;0.60;2201.60;;;;;;4770476;30;19917;-57
2021/12/22 05:00:43;;;;;;;;;;;0.50;2201.60;;;;;;4770530;30;19943;-55
2021/12/22 05:03:09;;;;;;;;;;;0.50;2201.60;;;;;;4770551;30;19917;-55
2021/12/22 05:05:34;;;;;;;;;;;0.50;2201.60;;;;;;4771062;30;19913;-55
2021/12/22 05:08:00;;;;;;;;;;;0.50;2201.60;;;;;;4770505;30;19918;-57
2021/12/22 05:10:26;;;;;;;;;;;0.50;2201.60;;;;;;4770459;30;19910;-55
2021/12/22 05:12:52;;;;;;;;;;;0.50;2201.60;;;;;;4770725;30;19910;-58
2021/12/22 05:15:23;;;;;;;;;;;0.60;2201.60;;;;;;4770677;30;20344;-55
2021/12/22 05:20:21;;;;;;;;;;;0.50;2201.60;;;;;;4770578;30;19914;-55
2021/12/22 05:22:47;;;;;;;;;;;0.50;2201.60;;;;;;4770190;30;19948;-55
2021/12/22 05:25:14;;;;;;;;;;;0.70;2201.60;;;;;;4770322;30;20384;-55
2021/12/22 05:27:41;;;;;;;;;;;0.70;2201.60;;;;;;4770245;30;19967;-55
2021/12/22 05:30:08;;;;;;;;;;;0.70;2201.60;;;;;;4770400;30;19910;-55
2021/12/22 05:32:35;;;;;;;;;;;0.60;2201.60;;;;;;4770271;30;19910;-55
2021/12/22 05:35:02;;;;;;;;;;;0.60;2201.60;;;;;;4770623;30;20373;-57
2021/12/22 05:37:28;;;;;;;;;;;0.60;2201.60;;;;;;4770321;30;20363;-55
2021/12/22 05:39:56;;;;;;;;;;;0.50;2201.60;;;;;;4773723;30;19917;-55
2021/12/22 05:42:25;;;;;;;;;;;0.50;2201.60;;;;;;4773693;30;20340;-55
2021/12/22 05:44:51;;;;;;;;;;;0.50;2201.60;;;;;;4773602;30;19909;-57
2021/12/22 05:47:17;;;;;;;;;;;0.50;2201.60;;;;;;4773259;30;20421;-55
2021/12/22 05:49:44;;;;;;;;;;;0.50;2201.60;;;;;;4773534;30;19917;-56
2021/12/22 05:52:10;;;;;;;;;;;0.50;2201.60;;;;;;4773257;30;20381;-55
2021/12/22 05:54:35;;;;;;;;;;;0.50;2201.60;;;;;;4773819;30;19921;-55
2021/12/22 05:57:01;;;;;;;;;;;0.40;2201.60;;;;;;4773126;30;20376;-58
2021/12/22 05:59:27;;;;;;;;;;;0.50;2201.60;;;;;;4757158;30;19917;-56
2021/12/22 06:01:52;;;;;;;;;;;0.50;2201.60;;;;;;4742388;30;19921;-55
2021/12/22 06:04:19;;;;;;;;;;;0.60;2201.60;;;;;;4773092;30;19917;-56
2021/12/22 06:06:45;;;;;;;;;;;0.60;2201.60;;;;;;4772994;30;19925;-56
2021/12/22 06:09:11;;;;;;;;;;;0.60;2201.60;;;;;;4772894;30;19917;-57
2021/12/22 06:11:37;;;;;;;;;;;0.60;2201.60;;;;;;4772888;30;20016;-56
2021/12/22 06:14:02;;;;;;;;;;;0.60;2201.60;;;;;;4757166;30;19914;-56
2021/12/22 06:16:30;;;;;;;;;;;0.60;2201.60;;;;;;4773004;30;19917;-56
2021/12/22 06:18:58;;;;;;;;;;;0.60;2201.60;;;;;;4773078;30;19917;-55
2021/12/22 06:21:24;;;;;;;;;;;0.60;2201.60;;;;;;4773084;30;20337;-55
2021/12/22 06:23:50;;;;;;;;;;;0.70;2201.60;;;;;;4772599;30;20380;-55
2021/12/22 06:26:16;;;;;;;;;;;0.60;2201.60;;;;;;4772756;30;19914;-56
2021/12/22 06:28:42;;;;;;;;;;;0.50;2201.60;;;;;;4772560;30;19917;-56
2021/12/22 06:31:07;;;;;;;;;;;0.40;2201.60;;;;;;4772638;30;19914;-55
2021/12/22 06:33:33;;;;;;;;;;;0.40;2201.60;;;;;;4772860;30;19910;-55
2021/12/22 06:35:59;;;;;;;;;;;0.40;2201.60;;;;;;4772570;30;20292;-58
2021/12/22 06:38:25;;;;;;;;;;;0.30;2201.60;;;;;;4772541;30;19914;-55
2021/12/22 06:40:51;;;;;;;;;;;0.20;2201.60;;;;;;4772312;30;19910;-55
2021/12/22 06:43:17;;;;;;;;;;;0.20;2201.60;;;;;;4772786;30;19910;-55
2021/12/22 06:45:43;;;;;;;;;;;0.20;2201.60;;;;;;4772577;30;20284;-55
2021/12/22 06:48:09;;;;;;;;;;;0.30;2201.60;;;;;;4772537;30;19918;-57
2021/12/22 06:50:35;;;;;;;;;;;0.30;2201.60;;;;;;4771275;30;19921;-55
2021/12/22 06:53:01;;;;;;;;;;;0.30;2201.60;;;;;;4756525;30;20367;-58
2021/12/22 06:55:27;;;;;;;;;;;0.30;2201.60;;;;;;4772455;30;19917;-57
2021/12/22 06:57:53;;;;;;;;;;;0.40;2201.60;;;;;;4756156;30;19910;-55
2021/12/22 07:00:18;;;;;;;;;;;0.40;2201.60;;;;;;4770447;30;19975;-56
2021/12/22 07:02:44;;;;;;;;;;;0.50;2201.60;;;;;;4771280;30;19917;-56
2021/12/22 07:05:11;;;;;;;;;;;0.50;2201.60;;;;;;4772090;30;19909;-58
2021/12/22 07:07:37;;;;;;;;;;;0.60;2201.60;;;;;;4771947;30;20398;-56
2021/12/22 07:10:04;;;;;;;;;;;0.60;2201.60;;;;;;4761496;30;19916;-55
2021/12/22 07:12:29;;;;;;;;;;;0.60;2201.60;;;;;;4763528;30;19918;-55
2021/12/22 07:14:55;;;;;;;;;;;0.60;2201.60;;;;;;4762534;30;20493;-56
2021/12/22 07:17:21;;;;;;;;;;;0.70;2201.60;;;;;;4762298;30;20373;-55
2021/12/22 07:19:46;;;;;;;;;;;0.70;2201.60;;;;;;4769005;30;19910;-56
2021/12/22 07:22:12;;;;;;;;;;;0.80;2201.60;;;;;;4771678;30;19910;-58
2021/12/22 07:24:38;;;;;;;;;;;0.80;2201.60;;;;;;4758703;30;19922;-54
2021/12/22 07:27:03;;;;;;;;;;;25.60;2201.60;;;;;;4753841;30;19925;-54
2021/12/22 07:29:29;;;;;;;;;;;25.60;2201.60;;;;;;4753202;30;19971;-53
2021/12/22 07:31:55;;;;;;;;;;;25.60;2201.60;;;;;;4753504;30;20375;-58
2021/12/22 07:34:44;;;;;;;;;;;25.70;2201.60;;;;;;4737737;30;19914;-54
2021/12/22 07:37:26;;;;;;;;;;;25.60;2201.60;;;;;;4736271;30;19911;-57
2021/12/22 07:39:52;;;;;;;;;;;0.90;2201.60;;;;;;4753884;30;19910;-54
2021/12/22 07:42:18;;;;;;;;;;;0.90;2201.60;;;;;;4753402;30;20288;-54
2021/12/22 07:44:45;;;;;;;;;;;0.90;2201.60;;;;;;4757829;30;20002;-54
2021/12/22 07:47:11;;;;;;;;;;;25.60;2201.60;;;;;;4771344;30;19921;-56
2021/12/22 07:49:36;;;;;;;;;;;25.60;2201.60;;;;;;4759486;30;19916;-56
2021/12/22 07:52:02;;;;;;;;;;;25.70;2201.60;;;;;;4753349;30;20000;-54
2021/12/22 07:54:28;;;;;;;;;;;25.70;2201.60;;;;;;4753447;30;19960;-54
2021/12/22 07:56:53;;;;;;;;;;;25.70;2201.60;;;;;;4753264;30;19960;-57
2021/12/22 07:59:19;;;;;;;;;;;25.60;2201.60;;;;;;4753337;30;19989;-57
2021/12/22 08:01:45;;;;;;;;;;;25.60;2201.60;;;;;;4756064;30;19914;-56
2021/12/22 08:04:10;;;;;;;;;;;25.60;2201.60;;;;;;4768517;30;20330;-55
2021/12/22 08:06:36;;;;;;;;;;;25.60;2201.60;;;;;;4771169;30;20331;-54
2021/12/22 08:09:02;;;;;;;;;;;25.60;2201.60;;;;;;4763885;30;20064;-57
2021/12/22 08:11:27;;;;;;;;;;;25.60;2201.60;;;;;;4741417;30;20291;-57
2021/12/22 08:13:55;;;;;;;;;;;25.60;2201.60;;;;;;4756934;30;19917;-58
2021/12/22 08:16:20;;;;;;;;;;;25.60;2201.60;;;;;;4755390;30;20013;-58
2021/12/22 08:18:46;;;;;;;;;;;25.70;2201.60;;;;;;4755550;30;20008;-63
2021/12/22 08:21:12;;;;;;;;;;;25.60;2201.60;;;;;;4767820;30;20008;-63
2021/12/22 08:23:38;;;;;;;;;;;25.60;2201.60;;;;;;4767462;30;20353;-58
2021/12/22 08:26:03;;;;;;;;;;;25.70;2201.60;;;;;;4767574;30;19939;-63
2021/12/22 08:28:29;;;;;;;;;;;25.70;2201.60;;;;;;4762781;30;19928;-63
2021/12/22 08:30:55;;;;;;;;;;;25.70;2201.60;;;;;;4760370;30;19914;-57
2021/12/22 08:33:22;;;;;;;;;;;25.80;2201.60;;;;;;4764007;30;19914;-58
2021/12/22 08:38:51;;;;;;;;;;;25.80;2201.60;;;;;;4760419;30;19963;-63
2021/12/22 08:41:28;;;;;;;;;;;25.90;2201.60;;;;;;4760711;30;19967;-58
2021/12/22 08:43:55;;;;;;;;;;;25.90;2201.60;;;;;;4760393;30;19942;-68
2021/12/22 08:46:21;;;;;;;;;;;26.00;2201.60;;;;;;4760111;30;19926;-57
2021/12/22 08:48:47;;;;;;;;;;;26.00;2201.60;;;;;;4761252;30;20013;-57
2021/12/22 08:51:13;;;;;;;;;;;26.10;2201.60;;;;;;4759896;30;19998;-57
2021/12/22 08:53:39;;;;;;;;;;;26.10;2201.60;;;;;;4761661;30;20384;-62
2021/12/22 08:56:05;;;;;;;;;;;26.20;2201.60;;;;;;4760486;30;19917;-58
2021/12/22 08:58:30;;;;;;;;;;;26.20;2201.60;;;;;;4760383;30;20291;-56
2021/12/22 09:00:56;;;;;;;;;;;26.20;2201.60;;;;;;4760580;30;19914;-58
2021/12/22 09:03:22;;;;;;;;;;;26.30;2201.60;;;;;;4760693;30;20352;-68
2021/12/22 09:05:47;;;;;;;;;;;26.30;2201.60;;;;;;4762889;30;19914;-55
2021/12/22 09:08:13;;;;;;;;;;;26.30;2201.60;;;;;;4762384;30;19922;-55
2021/12/22 09:10:40;;;;;;;;;;;26.40;2201.60;;;;;;4760595;30;19914;-55
2021/12/22 09:13:06;;;;;;;;;;;26.50;2201.60;;;;;;4744616;30;19926;-55
2021/12/22 09:15:31;;;;;;;;;;;51.20;2227.20;;;;;;4760074;30;19910;-55
2021/12/22 09:17:57;;;;;;;;;;;51.30;2227.20;;;;;;4755048;30;19917;-55
2021/12/22 09:20:23;;;;;;;;;;;51.40;2227.20;;;;;;4763254;30;19949;-55
2021/12/22 09:22:49;;;;;;;;;;;51.60;2227.20;;;;;;4761660;30;20014;-55
2021/12/22 09:25:15;;;;;;;;;;;51.60;2227.20;;;;;;4748877;30;19918;-55
2021/12/22 09:27:40;;;;;;;;;;;51.70;2227.20;;;;;;4762897;30;20365;-60
2021/12/22 09:30:07;;;;;;;;;;;51.70;2227.20;;;;;;4764196;30;19917;-56
2021/12/22 09:32:34;;;;;;;;;;;51.80;2227.20;;;;;;4762408;30;19910;-55
2021/12/22 09:34:59;;;;;;;;;;;52.10;2227.20;;;;;;4763734;30;20371;-55
2021/12/22 09:37:25;;;;;;;;;;;52.10;2227.20;;;;;;4763768;30;19914;-60
2021/12/22 09:39:51;;;;;;;;;;;76.80;2227.20;;;;;;4762594;30;20305;-57
2021/12/22 09:42:17;;;;;;;;;;;77.00;2227.20;;;;;;4763934;30;20267;-60
2021/12/22 09:44:45;;;;;;;;;;;77.10;2227.20;;;;;;4763139;30;19972;-55
2021/12/22 09:47:12;;;;;;;;;;;77.00;2227.20;;;;;;4762176;30;19969;-61
2021/12/22 09:52:18;;;;;;;;;;;77.30;2227.20;;;;;;4763595;30;19956;-59
2021/12/22 09:54:44;;;;;;;;;;;77.50;2227.20;;;;;;4763255;30;19910;-56
2021/12/22 09:57:10;;;;;;;;;;;128.50;2099.20;;;;;;4762340;30;20059;-59
2021/12/22 09:59:36;;;;;;;;;;;205.00;1715.20;;;;;;4763933;30;20000;-56
2021/12/22 10:02:02;;;;;;;;;;;231.00;1536.00;;;;;;4762753;30;19979;-57
2021/12/22 10:04:28;;;;;;;;;;;281.60;1408.00;;;;;;4762489;30;20287;-56
2021/12/22 10:06:54;;;;;;;;;;;358.50;1254.40;;;;;;4762709;30;20012;-56
2021/12/22 10:09:23;;;;;;;;;;;435.80;972.80;;;;;;4770133;30;20039;-59
2021/12/22 10:11:49;;;;;;;;;;;512.40;844.80;;;;;;4765685;30;19914;-56
2021/12/22 10:14:22;;;;;;;;;;;512.20;819.20;;;;;;4767005;30;20333;-58
2021/12/22 10:16:49;;;;;;;;;;;461.70;870.40;;;;;;4765294;30;19925;-58
2021/12/22 10:19:14;;;;;;;;;;;435.40;921.60;;;;;;4752550;30;19956;-59
2021/12/22 10:21:55;;;;;;;;;;;435.60;947.20;;;;;;4768867;30;20314;-58
2021/12/22 10:24:32;;;;;;;;;;;461.10;896.00;;;;;;4767617;30;19961;-57
2021/12/22 10:27:01;;;;;;;;;;;435.70;921.60;;;;;;4760786;30;20276;-57
2021/12/22 10:29:31;;;;;;;;;;;384.50;1024.00;;;;;;4761206;30;20387;-60
2021/12/22 10:32:04;;;;;;;;;;;384.10;1024.00;;;;;;4762504;30;19959;-56
2021/12/22 10:34:30;;;;;;;;;;;384.10;1024.00;;;;;;4765853;30;20291;-56
2021/12/22 10:36:55;;;;;;;;;;;384.10;1024.00;;;;;;4760448;30;19922;-60
2021/12/22 10:39:24;;;;;;;;;;;410.30;947.20;;;;;;4761839;30;20379;-56
2021/12/22 10:41:50;;;;;;;;;;;384.20;972.80;;;;;;4744392;30;19973;-58
2021/12/22 10:44:16;;;;;;;;;;;307.90;1126.40;;;;;;4763210;30;19967;-57
2021/12/22 10:46:42;;;;;;;;;;;332.90;1152.00;;;;;;4768982;30;19917;-59
2021/12/22 10:49:17;;;;;;;;;;;435.30;896.00;;;;;;4769236;30;19910;-56
2021/12/22 10:51:44;;;;;;;;;;;461.00;844.80;;;;;;4753853;30;19949;-57
2021/12/22 10:54:11;;;;;;;;;;;409.60;921.60;;;;;;4767296;30;19910;-58
2021/12/22 10:56:44;;;;;;;;;;;333.30;1100.80;;;;;;4761418;30;19960;-56
2021/12/22 10:59:14;;;;;;;;;;;358.70;1049.60;;;;;;4766594;30;20359;-57
2021/12/22 11:01:49;;;;;;;;;;;308.00;1100.80;;;;;;4759430;30;19914;-58
2021/12/22 11:04:18;;;;;;;;;;;358.50;1075.20;;;;;;4768969;30;19918;-59
2021/12/22 11:06:45;;;;;;;;;;;384.50;947.20;;;;;;4767069;30;19952;-60
2021/12/22 11:09:15;;;;;;;;;;;359.10;998.40;;;;;;4759018;30;19976;-56
2021/12/22 11:11:41;;;;;;;;;;;358.40;1049.60;;;;;;4760456;30;19911;-58
2021/12/22 11:14:14;;;;;;;;;;;307.90;1126.40;;;;;;4760632;30;19924;-58
2021/12/22 11:16:52;;;;;;;;;;;281.90;1228.80;;;;;;4760462;30;19916;-59
2021/12/22 11:19:18;;;;;;;;;;;256.30;1254.40;;;;;;4760072;30;19953;-59
2021/12/22 11:22:13;;;;;;;;;;;205.60;1382.40;;;;;;4761452;30;20394;-57
2021/12/22 11:24:49;;;;;;;;;;;204.90;1459.20;;;;;;4760023;30;19984;-57
2021/12/22 11:27:16;;;;;;;;;;;179.80;1510.40;;;;;;4759824;30;19924;-60
2021/12/22 11:29:44;;;;;;;;;;;179.30;1587.20;;;;;;4761696;30;19917;-55
2021/12/22 11:32:10;;;;;;;;;;;154.30;1612.80;;;;;;4761264;30;19917;-56
2021/12/22 11:34:37;;;;;;;;;;;154.00;1664.00;;;;;;4759953;30;19953;-60
2021/12/22 11:37:04;;;;;;;;;;;153.90;1664.00;;;;;;4760684;30;20379;-56
2021/12/22 11:39:30;;;;;;;;;;;153.80;1689.60;;;;;;4757611;30;19959;-59
2021/12/22 11:41:58;;;;;;;;;;;153.60;1715.20;;;;;;4764163;30;19960;-59
2021/12/22 11:44:27;;;;;;;;;;;128.90;1715.20;;;;;;4771010;30;20008;-60
2021/12/22 11:46:55;;;;;;;;;;;153.60;1715.20;;;;;;4770765;30;19916;-59
2021/12/22 11:49:21;;;;;;;;;;;128.90;1664.00;;;;;;4770751;30;19939;-59
2021/12/22 11:51:47;;;;;;;;;;;128.90;1664.00;;;;;;4770372;30;19909;-57
2021/12/22 11:54:13;;;;;;;;;;;128.90;1638.40;;;;;;4770686;30;19910;-55
2021/12/22 11:56:38;;;;;;;;;;;153.60;1689.60;;;;;;4760616;30;19914;-59
2021/12/22 11:59:05;;;;;;;;;;;153.70;1664.00;;;;;;4755291;30;20335;-57
2021/12/22 12:01:31;;;;;;;;;;;153.70;1664.00;;;;;;4759880;30;19918;-65
2021/12/22 12:04:13;;;;;;;;;;;128.90;1664.00;;;;;;4768299;30;19914;-57
2021/12/22 12:06:51;;;;;;;;;;;128.70;1664.00;;;;;;4769138;30;20384;-58
2021/12/22 12:09:21;;;;;;;;;;;128.80;1664.00;;;;;;4770041;30;19936;-55
2021/12/22 12:14:36;;;;;;;;;;;128.70;1638.40;;;;;;4770735;30;19910;-56
2021/12/22 12:23:21;;;;;;;;;;;153.60;1638.40;;;;;;4770530;30;20287;-55
2021/12/22 12:25:46;;;;;;;;;;;154.20;1612.80;;;;;;4769723;30;20460;-57
2021/12/22 12:28:17;;;;;;;;;;;205.00;1459.20;;;;;;4765814;30;19965;-58
2021/12/22 12:30:44;;;;;;;;;;;205.20;1408.00;;;;;;4762394;30;19970;-55
2021/12/22 12:33:11;;;;;;;;;;;204.90;1433.60;;;;;;4770436;30;20373;-56
2021/12/22 12:35:39;;;;;;;;;;;256.00;1254.40;;;;;;4770244;30;20368;-55
2021/12/22 12:38:12;;;;;;;;;;;282.10;1152.00;;;;;;4770321;29;20004;-55
2021/12/22 12:41:00;;;;;;;;;;;282.10;1152.00;;;;;;4770524;30;20385;-58
2021/12/22 12:43:41;;;;;;;;;;;307.40;1152.00;;;;;;4761855;30;19976;-56
2021/12/22 12:46:29;;;;;;;;;;;282.40;1152.00;;;;;;4759507;30;19914;-56
2021/12/22 12:48:55;;;;;;;;;;;281.80;1203.20;;;;;;4764069;30;19991;-60
2021/12/22 12:51:25;;;;;;;;;;;307.90;1100.80;;;;;;4763962;30;19914;-55
2021/12/22 12:53:53;;;;;;;;;;;307.90;1100.80;;;;;;4763023;30;20371;-56
2021/12/22 12:56:21;;;;;;;;;;;359.00;998.40;;;;;;4764246;30;19910;-56
2021/12/22 12:58:53;;;;;;;;;;;384.10;947.20;;;;;;4764452;30;20261;-56
2021/12/22 13:01:38;;;;;;;;;;;410.50;896.00;;;;;;4763726;30;19976;-58
2021/12/22 13:04:18;;;;;;;;;;;461.70;844.80;;;;;;4763922;30;19910;-59
2021/12/22 13:06:44;;;;;;;;;;;486.70;768.00;;;;;;4759860;30;20445;-56
2021/12/22 13:09:22;;;;;;;;;;;486.80;793.60;;;;;;4758885;30;19918;-55
2021/12/22 13:11:57;;;;;;;;;;;512.50;716.80;;;;;;4772228;30;19910;-56
2021/12/22 13:17:14;;;;;;;;;;;512.00;819.20;;;;;;4773180;30;20322;-55
2021/12/22 13:19:41;;;;;;;;;;;538.30;716.80;;;;;;4773237;30;20352;-55
2021/12/22 13:22:19;;;;;;;;;;;563.90;691.20;;;;;;4769762;30;20304;-57
2021/12/22 13:24:45;;;;;;;;;;;564.00;691.20;;;;;;4755606;30;19938;-56
2021/12/22 13:27:11;;;;;;;;;;;589.30;640.00;;;;;;4755542;30;19914;-57
2021/12/22 13:29:39;;;;;;;;;;;614.60;614.40;;;;;;4755335;30;19946;-56
2021/12/22 13:32:06;;;;;;;;;;;614.50;640.00;;;;;;4766528;30;19909;-60
2021/12/22 13:34:41;;;;;;;;;;;615.00;588.80;;;;;;4773540;30;19914;-57
2021/12/22 13:37:07;;;;;;;;;;;614.90;614.40;;;;;;4773471;30;19917;-58
2021/12/22 13:39:45;;;;;;;;;;;614.90;588.80;;;;;;4773095;30;19910;-55
2021/12/22 13:42:12;;;;;;;;;;;614.90;588.80;;;;;;4773271;30;19909;-60
2021/12/22 13:44:38;;;;;;;;;;;614.70;614.40;;;;;;4765582;30;19911;-55
2021/12/22 13:47:04;;;;;;;;;;;614.40;614.40;;;;;;4754932;30;19918;-55
2021/12/22 13:49:31;;;;;;;;;;;614.40;614.40;;;;;;4754709;30;19971;-57
2021/12/22 13:51:57;;;;;;;;;;;614.40;614.40;;;;;;4754234;30;19914;-57
2021/12/22 13:54:27;;;;;;;;;;;588.90;640.00;;;;;;4756929;30;19917;-58
2021/12/22 13:57:03;;;;;;;;;;;589.20;640.00;;;;;;4772941;30;19921;-55
2021/12/22 13:59:30;;;;;;;;;;;588.80;640.00;;;;;;4772463;30;20291;-56
2021/12/22 14:01:59;;;;;;;;;;;563.60;665.60;;;;;;4766782;30;20383;-55
2021/12/22 14:04:31;;;;;;;;;;;538.30;691.20;;;;;;4763377;30;19920;-55
2021/12/22 14:07:06;;;;;;;;;;;512.90;665.60;;;;;;4765568;30;19964;-58
2021/12/22 14:09:33;;;;;;;;;;;435.20;844.80;;;;;;4767876;30;19937;-56
2021/12/22 14:12:10;;;;;;;;;;;359.20;921.60;;;;;;4767015;30;19925;-59
2021/12/22 14:14:42;;;;;;;;;;;384.70;870.40;;;;;;4758655;30;20008;-59
2021/12/22 14:17:09;;;;;;;;;;;409.90;870.40;;;;;;4762451;30;19913;-59
2021/12/22 14:19:37;;;;;;;;;;;384.10;870.40;;;;;;4759069;30;20323;-60
2021/12/22 14:22:07;;;;;;;;;;;333.00;1049.60;;;;;;4758618;30;19914;-56
2021/12/22 14:24:34;;;;;;;;;;;333.20;1024.00;;;;;;4756585;30;19922;-55
2021/12/22 14:27:01;;;;;;;;;;;307.60;1049.60;;;;;;4757588;30;19914;-56
2021/12/22 14:29:30;;;;;;;;;;;282.00;1100.80;;;;;;4772175;30;19921;-55